Alsen, North Dakota
Current Conditions -  °F | °C
As of 1:55 AM on Tuesday 21 Oct 2014 (Local Time) from KD55 Reporting Station
Clear Clear  
Wind Chill: 35°   Ceiling: Unl
Heat Index: 43°   Visibility: 10mi
Dew Point: 37°   Wind: 18mph
Humidity: 81%   Direction: 140°SE
Pressure: 29.99"   Gusts: 23mph
Location:  48.63°N, 98.7°W
Report Text: KD55 210655Z AUTO 14016G20KT 10SM CLR 06/03 A2999 RMK AO2
Loading
Personal Weather Stations






























Interactive Weather Map
Tropical Storm Tracking
New forecast layout! Learn more

10-Day Weather Forecast

Advertisements
Track Severe Weather on mobile